sensor_id;sensor_type;location;lat;lon;timestamp;P1;durP1;ratioP1;P2;durP2;ratioP2
50128;SDS011;36026;45.478;9.224;2023-06-19T00:01:29;9.30;;;6.63;;
50128;SDS011;36026;45.478;9.224;2023-06-19T00:04:32;7.03;;;6.30;;
50128;SDS011;36026;45.478;9.224;2023-06-19T00:07:34;10.02;;;6.65;;
50128;SDS011;36026;45.478;9.224;2023-06-19T00:10:38;8.00;;;5.90;;
50128;SDS011;36026;45.478;9.224;2023-06-19T00:13:42;8.65;;;6.80;;
50128;SDS011;36026;45.478;9.224;2023-06-19T00:16:47;9.20;;;6.82;;
50128;SDS011;36026;45.478;9.224;2023-06-19T00:19:51;8.13;;;6.57;;
50128;SDS011;36026;45.478;9.224;2023-06-19T00:25:55;9.15;;;6.53;;
50128;SDS011;36026;45.478;9.224;2023-06-19T00:28:56;9.25;;;7.00;;
50128;SDS011;36026;45.478;9.224;2023-06-19T00:31:59;8.32;;;7.40;;
50128;SDS011;36026;45.478;9.224;2023-06-19T00:35:02;10.48;;;7.00;;
50128;SDS011;36026;45.478;9.224;2023-06-19T00:38:04;7.90;;;7.10;;
50128;SDS011;36026;45.478;9.224;2023-06-19T00:41:07;7.53;;;6.80;;
50128;SDS011;36026;45.478;9.224;2023-06-19T00:44:09;11.80;;;8.05;;
50128;SDS011;36026;45.478;9.224;2023-06-19T00:47:11;9.30;;;7.13;;
50128;SDS011;36026;45.478;9.224;2023-06-19T00:50:14;10.18;;;7.38;;
50128;SDS011;36026;45.478;9.224;2023-06-19T00:53:16;8.07;;;6.80;;
50128;SDS011;36026;45.478;9.224;2023-06-19T00:56:18;8.75;;;7.05;;
50128;SDS011;36026;45.478;9.224;2023-06-19T00:59:20;9.93;;;7.50;;
50128;SDS011;36026;45.478;9.224;2023-06-19T01:02:22;8.93;;;7.05;;
50128;SDS011;36026;45.478;9.224;2023-06-19T01:05:25;8.60;;;6.72;;
50128;SDS011;36026;45.478;9.224;2023-06-19T01:08:34;9.13;;;7.75;;
50128;SDS011;36026;45.478;9.224;2023-06-19T01:11:44;8.02;;;7.20;;
50128;SDS011;36026;45.478;9.224;2023-06-19T01:14:50;9.13;;;6.88;;
50128;SDS011;36026;45.478;9.224;2023-06-19T01:17:56;9.32;;;7.32;;
50128;SDS011;36026;45.478;9.224;2023-06-19T01:21:09;8.35;;;7.28;;
50128;SDS011;36026;45.478;9.224;2023-06-19T01:24:13;8.18;;;7.38;;
50128;SDS011;36026;45.478;9.224;2023-06-19T01:27:15;7.10;;;6.40;;
50128;SDS011;36026;45.478;9.224;2023-06-19T01:30:17;8.85;;;7.40;;
50128;SDS011;36026;45.478;9.224;2023-06-19T01:33:20;9.73;;;7.03;;
50128;SDS011;36026;45.478;9.224;2023-06-19T01:36:26;9.48;;;7.22;;
50128;SDS011;36026;45.478;9.224;2023-06-19T01:39:29;8.30;;;7.25;;
50128;SDS011;36026;45.478;9.224;2023-06-19T01:42:31;10.85;;;6.63;;
50128;SDS011;36026;45.478;9.224;2023-06-19T01:45:33;8.63;;;7.10;;
50128;SDS011;36026;45.478;9.224;2023-06-19T01:48:35;8.02;;;7.22;;
50128;SDS011;36026;45.478;9.224;2023-06-19T01:51:39;8.85;;;6.90;;
50128;SDS011;36026;45.478;9.224;2023-06-19T01:54:42;8.10;;;6.40;;
50128;SDS011;36026;45.478;9.224;2023-06-19T01:57:43;7.70;;;6.28;;
50128;SDS011;36026;45.478;9.224;2023-06-19T02:00:46;10.43;;;7.00;;
50128;SDS011;36026;45.478;9.224;2023-06-19T02:03:48;8.52;;;6.55;;
50128;SDS011;36026;45.478;9.224;2023-06-19T02:06:49;7.25;;;6.50;;
50128;SDS011;36026;45.478;9.224;2023-06-19T02:09:52;8.23;;;6.53;;
50128;SDS011;36026;45.478;9.224;2023-06-19T02:12:54;8.35;;;6.00;;
50128;SDS011;36026;45.478;9.224;2023-06-19T02:15:56;7.45;;;6.68;;
50128;SDS011;36026;45.478;9.224;2023-06-19T02:18:57;8.68;;;6.47;;
50128;SDS011;36026;45.478;9.224;2023-06-19T02:22:00;11.23;;;6.40;;
50128;SDS011;36026;45.478;9.224;2023-06-19T02:25:03;7.13;;;6.43;;
50128;SDS011;36026;45.478;9.224;2023-06-19T02:28:05;7.45;;;5.75;;
50128;SDS011;36026;45.478;9.224;2023-06-19T02:31:07;7.38;;;5.85;;
50128;SDS011;36026;45.478;9.224;2023-06-19T02:34:09;7.10;;;6.32;;
50128;SDS011;36026;45.478;9.224;2023-06-19T02:37:10;7.30;;;6.03;;
50128;SDS011;36026;45.478;9.224;2023-06-19T02:40:14;8.82;;;6.38;;
50128;SDS011;36026;45.478;9.224;2023-06-19T02:46:17;8.18;;;6.85;;
50128;SDS011;36026;45.478;9.224;2023-06-19T02:49:18;7.63;;;6.00;;
50128;SDS011;36026;45.478;9.224;2023-06-19T02:52:20;6.43;;;5.78;;
50128;SDS011;36026;45.478;9.224;2023-06-19T02:55:23;6.57;;;5.35;;
50128;SDS011;36026;45.478;9.224;2023-06-19T02:58:25;7.45;;;5.47;;
50128;SDS011;36026;45.478;9.224;2023-06-19T03:01:27;5.60;;;5.10;;
50128;SDS011;36026;45.478;9.224;2023-06-19T03:04:29;5.40;;;4.90;;
50128;SDS011;36026;45.478;9.224;2023-06-19T03:07:30;8.27;;;5.30;;
50128;SDS011;36026;45.478;9.224;2023-06-19T03:10:33;5.85;;;5.07;;
50128;SDS011;36026;45.478;9.224;2023-06-19T03:13:43;7.72;;;4.60;;
50128;SDS011;36026;45.478;9.224;2023-06-19T03:16:46;5.07;;;4.50;;
50128;SDS011;36026;45.478;9.224;2023-06-19T03:19:47;5.30;;;4.78;;
50128;SDS011;36026;45.478;9.224;2023-06-19T03:22:49;6.18;;;4.82;;
50128;SDS011;36026;45.478;9.224;2023-06-19T03:25:53;5.55;;;4.50;;
50128;SDS011;36026;45.478;9.224;2023-06-19T03:28:54;5.30;;;4.50;;
50128;SDS011;36026;45.478;9.224;2023-06-19T03:31:56;5.15;;;4.63;;
50128;SDS011;36026;45.478;9.224;2023-06-19T03:34:58;5.32;;;4.30;;
50128;SDS011;36026;45.478;9.224;2023-06-19T03:37:59;5.55;;;4.50;;
50128;SDS011;36026;45.478;9.224;2023-06-19T03:41:02;6.18;;;4.10;;
50128;SDS011;36026;45.478;9.224;2023-06-19T03:44:04;8.23;;;4.28;;
50128;SDS011;36026;45.478;9.224;2023-06-19T03:47:06;7.88;;;4.30;;
50128;SDS011;36026;45.478;9.224;2023-06-19T03:50:08;5.93;;;4.13;;
50128;SDS011;36026;45.478;9.224;2023-06-19T03:53:10;9.27;;;4.30;;
50128;SDS011;36026;45.478;9.224;2023-06-19T03:56:14;7.55;;;4.40;;
50128;SDS011;36026;45.478;9.224;2023-06-19T03:59:15;6.85;;;4.43;;
50128;SDS011;36026;45.478;9.224;2023-06-19T04:02:17;5.75;;;4.68;;
50128;SDS011;36026;45.478;9.224;2023-06-19T04:05:19;6.72;;;4.05;;
50128;SDS011;36026;45.478;9.224;2023-06-19T04:08:20;6.88;;;4.68;;
50128;SDS011;36026;45.478;9.224;2023-06-19T04:11:23;5.35;;;4.45;;
50128;SDS011;36026;45.478;9.224;2023-06-19T04:14:25;9.25;;;5.03;;
50128;SDS011;36026;45.478;9.224;2023-06-19T04:17:27;6.22;;;4.82;;
50128;SDS011;36026;45.478;9.224;2023-06-19T04:20:28;5.18;;;4.60;;
50128;SDS011;36026;45.478;9.224;2023-06-19T04:23:30;6.30;;;5.15;;
50128;SDS011;36026;45.478;9.224;2023-06-19T04:26:33;4.63;;;4.22;;
50128;SDS011;36026;45.478;9.224;2023-06-19T04:29:34;6.28;;;4.88;;
50128;SDS011;36026;45.478;9.224;2023-06-19T04:32:36;7.38;;;5.32;;
50128;SDS011;36026;45.478;9.224;2023-06-19T04:35:40;5.55;;;5.00;;
50128;SDS011;36026;45.478;9.224;2023-06-19T04:38:42;6.53;;;5.40;;
50128;SDS011;36026;45.478;9.224;2023-06-19T04:41:45;5.90;;;4.75;;
50128;SDS011;36026;45.478;9.224;2023-06-19T04:44:47;6.38;;;5.05;;
50128;SDS011;36026;45.478;9.224;2023-06-19T04:47:49;5.63;;;5.00;;
50128;SDS011;36026;45.478;9.224;2023-06-19T04:50:51;5.78;;;4.90;;
50128;SDS011;36026;45.478;9.224;2023-06-19T04:53:52;5.80;;;5.03;;
50128;SDS011;36026;45.478;9.224;2023-06-19T04:56:55;6.57;;;5.10;;
50128;SDS011;36026;45.478;9.224;2023-06-19T04:59:57;6.90;;;5.03;;
50128;SDS011;36026;45.478;9.224;2023-06-19T05:02:59;6.13;;;4.78;;
50128;SDS011;36026;45.478;9.224;2023-06-19T05:06:01;5.38;;;4.78;;
50128;SDS011;36026;45.478;9.224;2023-06-19T05:09:02;6.28;;;5.68;;
50128;SDS011;36026;45.478;9.224;2023-06-19T05:12:06;6.25;;;5.05;;
50128;SDS011;36026;45.478;9.224;2023-06-19T05:15:08;8.93;;;5.30;;
50128;SDS011;36026;45.478;9.224;2023-06-19T05:18:11;6.85;;;5.05;;
50128;SDS011;36026;45.478;9.224;2023-06-19T05:21:12;5.60;;;4.88;;
50128;SDS011;36026;45.478;9.224;2023-06-19T05:24:14;7.70;;;4.85;;
50128;SDS011;36026;45.478;9.224;2023-06-19T05:27:17;6.97;;;5.68;;
50128;SDS011;36026;45.478;9.224;2023-06-19T05:30:18;5.25;;;4.72;;
50128;SDS011;36026;45.478;9.224;2023-06-19T05:33:20;7.47;;;5.05;;
50128;SDS011;36026;45.478;9.224;2023-06-19T05:36:23;5.55;;;5.05;;
50128;SDS011;36026;45.478;9.224;2023-06-19T05:39:25;6.93;;;5.35;;
50128;SDS011;36026;45.478;9.224;2023-06-19T05:42:28;6.60;;;5.25;;
50128;SDS011;36026;45.478;9.224;2023-06-19T05:45:29;7.22;;;6.10;;
50128;SDS011;36026;45.478;9.224;2023-06-19T05:48:31;8.07;;;5.50;;
50128;SDS011;36026;45.478;9.224;2023-06-19T05:51:33;6.65;;;5.45;;
50128;SDS011;36026;45.478;9.224;2023-06-19T05:54:34;8.30;;;5.65;;
50128;SDS011;36026;45.478;9.224;2023-06-19T05:57:37;10.20;;;5.50;;
50128;SDS011;36026;45.478;9.224;2023-06-19T06:00:39;6.85;;;5.32;;
50128;SDS011;36026;45.478;9.224;2023-06-19T06:03:41;7.05;;;4.35;;
50128;SDS011;36026;45.478;9.224;2023-06-19T06:06:42;9.07;;;5.90;;
50128;SDS011;36026;45.478;9.224;2023-06-19T06:09:44;7.45;;;5.47;;
50128;SDS011;36026;45.478;9.224;2023-06-19T06:12:47;5.38;;;4.60;;
50128;SDS011;36026;45.478;9.224;2023-06-19T06:15:49;7.00;;;5.80;;
50128;SDS011;36026;45.478;9.224;2023-06-19T06:18:51;6.47;;;5.38;;
50128;SDS011;36026;45.478;9.224;2023-06-19T06:21:53;6.28;;;5.15;;
50128;SDS011;36026;45.478;9.224;2023-06-19T06:24:54;6.03;;;5.30;;
50128;SDS011;36026;45.478;9.224;2023-06-19T06:27:57;7.63;;;5.65;;
50128;SDS011;36026;45.478;9.224;2023-06-19T06:30:59;6.75;;;5.80;;
50128;SDS011;36026;45.478;9.224;2023-06-19T06:34:00;7.95;;;4.80;;
50128;SDS011;36026;45.478;9.224;2023-06-19T06:37:02;6.57;;;5.22;;
50128;SDS011;36026;45.478;9.224;2023-06-19T06:40:05;8.80;;;5.75;;
50128;SDS011;36026;45.478;9.224;2023-06-19T06:43:10;7.78;;;4.90;;
50128;SDS011;36026;45.478;9.224;2023-06-19T06:46:12;6.55;;;5.40;;
50128;SDS011;36026;45.478;9.224;2023-06-19T06:49:14;10.73;;;6.00;;
50128;SDS011;36026;45.478;9.224;2023-06-19T06:52:17;9.53;;;6.13;;
50128;SDS011;36026;45.478;9.224;2023-06-19T06:55:18;9.13;;;6.30;;
50128;SDS011;36026;45.478;9.224;2023-06-19T06:58:22;10.82;;;6.03;;
50128;SDS011;36026;45.478;9.224;2023-06-19T07:01:23;10.48;;;6.43;;
50128;SDS011;36026;45.478;9.224;2023-06-19T07:04:25;10.00;;;7.07;;
50128;SDS011;36026;45.478;9.224;2023-06-19T07:07:26;8.05;;;7.18;;
50128;SDS011;36026;45.478;9.224;2023-06-19T07:10:28;8.93;;;6.35;;
50128;SDS011;36026;45.478;9.224;2023-06-19T07:13:31;11.02;;;6.75;;
50128;SDS011;36026;45.478;9.224;2023-06-19T07:16:33;7.97;;;6.68;;
50128;SDS011;36026;45.478;9.224;2023-06-19T07:19:34;8.50;;;6.65;;
50128;SDS011;36026;45.478;9.224;2023-06-19T07:22:36;9.15;;;7.45;;
50128;SDS011;36026;45.478;9.224;2023-06-19T07:25:38;8.38;;;7.45;;
50128;SDS011;36026;45.478;9.224;2023-06-19T07:28:41;9.00;;;8.00;;
50128;SDS011;36026;45.478;9.224;2023-06-19T07:31:42;9.55;;;7.82;;
50128;SDS011;36026;45.478;9.224;2023-06-19T07:34:44;8.77;;;7.88;;
50128;SDS011;36026;45.478;9.224;2023-06-19T07:37:46;10.52;;;7.20;;
50128;SDS011;36026;45.478;9.224;2023-06-19T07:40:47;8.07;;;6.75;;
50128;SDS011;36026;45.478;9.224;2023-06-19T07:43:50;7.70;;;6.57;;
50128;SDS011;36026;45.478;9.224;2023-06-19T07:46:52;10.55;;;6.22;;
50128;SDS011;36026;45.478;9.224;2023-06-19T07:49:54;14.82;;;7.50;;
50128;SDS011;36026;45.478;9.224;2023-06-19T07:52:55;9.52;;;7.50;;
50128;SDS011;36026;45.478;9.224;2023-06-19T07:55:57;9.40;;;6.30;;
50128;SDS011;36026;45.478;9.224;2023-06-19T07:59:00;6.75;;;5.18;;
50128;SDS011;36026;45.478;9.224;2023-06-19T08:02:02;6.78;;;5.57;;
50128;SDS011;36026;45.478;9.224;2023-06-19T08:05:03;7.78;;;5.97;;
50128;SDS011;36026;45.478;9.224;2023-06-19T08:08:06;11.07;;;6.37;;
50128;SDS011;36026;45.478;9.224;2023-06-19T08:11:07;9.82;;;6.70;;
50128;SDS011;36026;45.478;9.224;2023-06-19T08:14:10;8.93;;;6.00;;
50128;SDS011;36026;45.478;9.224;2023-06-19T08:17:12;10.40;;;7.05;;
50128;SDS011;36026;45.478;9.224;2023-06-19T08:20:15;9.38;;;6.05;;
50128;SDS011;36026;45.478;9.224;2023-06-19T08:23:17;9.30;;;6.10;;
50128;SDS011;36026;45.478;9.224;2023-06-19T08:26:18;12.80;;;7.70;;
50128;SDS011;36026;45.478;9.224;2023-06-19T08:29:22;10.50;;;7.40;;
50128;SDS011;36026;45.478;9.224;2023-06-19T08:32:24;10.13;;;7.35;;
50128;SDS011;36026;45.478;9.224;2023-06-19T08:35:26;8.80;;;6.00;;
50128;SDS011;36026;45.478;9.224;2023-06-19T08:38:28;7.63;;;5.95;;
50128;SDS011;36026;45.478;9.224;2023-06-19T08:41:30;8.82;;;6.20;;
50128;SDS011;36026;45.478;9.224;2023-06-19T08:44:34;6.97;;;5.88;;
50128;SDS011;36026;45.478;9.224;2023-06-19T08:47:36;8.45;;;5.95;;
50128;SDS011;36026;45.478;9.224;2023-06-19T08:50:38;6.63;;;5.93;;
50128;SDS011;36026;45.478;9.224;2023-06-19T08:53:44;10.85;;;6.60;;
50128;SDS011;36026;45.478;9.224;2023-06-19T08:56:46;9.27;;;6.25;;
50128;SDS011;36026;45.478;9.224;2023-06-19T08:59:50;8.80;;;6.47;;
50128;SDS011;36026;45.478;9.224;2023-06-19T09:02:52;7.90;;;6.05;;
50128;SDS011;36026;45.478;9.224;2023-06-19T09:06:02;7.60;;;5.88;;
50128;SDS011;36026;45.478;9.224;2023-06-19T09:09:04;9.23;;;5.82;;
50128;SDS011;36026;45.478;9.224;2023-06-19T09:12:11;5.57;;;5.07;;
50128;SDS011;36026;45.478;9.224;2023-06-19T09:15:15;9.43;;;6.35;;
50128;SDS011;36026;45.478;9.224;2023-06-19T09:18:17;6.95;;;6.35;;
50128;SDS011;36026;45.478;9.224;2023-06-19T09:21:20;6.03;;;5.50;;
50128;SDS011;36026;45.478;9.224;2023-06-19T09:24:23;7.88;;;6.03;;
50128;SDS011;36026;45.478;9.224;2023-06-19T09:27:24;8.27;;;5.82;;
50128;SDS011;36026;45.478;9.224;2023-06-19T09:30:27;7.38;;;5.38;;
50128;SDS011;36026;45.478;9.224;2023-06-19T09:33:29;8.57;;;5.30;;
50128;SDS011;36026;45.478;9.224;2023-06-19T09:39:34;6.93;;;5.70;;
50128;SDS011;36026;45.478;9.224;2023-06-19T09:42:38;7.97;;;5.40;;
50128;SDS011;36026;45.478;9.224;2023-06-19T09:48:44;7.90;;;5.03;;
50128;SDS011;36026;45.478;9.224;2023-06-19T09:51:46;8.95;;;5.78;;
50128;SDS011;36026;45.478;9.224;2023-06-19T09:54:51;7.05;;;5.55;;
50128;SDS011;36026;45.478;9.224;2023-06-19T09:57:53;6.97;;;5.03;;
50128;SDS011;36026;45.478;9.224;2023-06-19T10:00:57;5.57;;;4.78;;
50128;SDS011;36026;45.478;9.224;2023-06-19T10:04:03;5.80;;;4.72;;
50128;SDS011;36026;45.478;9.224;2023-06-19T10:07:14;7.40;;;5.10;;
50128;SDS011;36026;45.478;9.224;2023-06-19T10:10:22;7.57;;;5.07;;
50128;SDS011;36026;45.478;9.224;2023-06-19T10:13:31;7.00;;;4.63;;
50128;SDS011;36026;45.478;9.224;2023-06-19T10:16:34;5.63;;;4.45;;
50128;SDS011;36026;45.478;9.224;2023-06-19T10:19:36;7.95;;;5.10;;
50128;SDS011;36026;45.478;9.224;2023-06-19T10:22:38;5.70;;;4.68;;
50128;SDS011;36026;45.478;9.224;2023-06-19T10:25:40;6.28;;;4.70;;
50128;SDS011;36026;45.478;9.224;2023-06-19T10:28:45;6.55;;;4.70;;
50128;SDS011;36026;45.478;9.224;2023-06-19T10:31:49;6.00;;;4.65;;
50128;SDS011;36026;45.478;9.224;2023-06-19T10:34:51;5.50;;;5.00;;
50128;SDS011;36026;45.478;9.224;2023-06-19T10:37:53;5.43;;;4.65;;
50128;SDS011;36026;45.478;9.224;2023-06-19T10:40:54;5.38;;;4.88;;
50128;SDS011;36026;45.478;9.224;2023-06-19T10:43:59;10.60;;;6.47;;
50128;SDS011;36026;45.478;9.224;2023-06-19T10:47:03;7.18;;;5.28;;
50128;SDS011;36026;45.478;9.224;2023-06-19T10:50:05;6.25;;;4.95;;
50128;SDS011;36026;45.478;9.224;2023-06-19T10:53:11;6.88;;;5.35;;
50128;SDS011;36026;45.478;9.224;2023-06-19T10:56:12;9.85;;;5.75;;
50128;SDS011;36026;45.478;9.224;2023-06-19T10:59:14;7.50;;;6.75;;
50128;SDS011;36026;45.478;9.224;2023-06-19T11:02:18;8.55;;;6.55;;
50128;SDS011;36026;45.478;9.224;2023-06-19T11:05:20;6.40;;;5.28;;
50128;SDS011;36026;45.478;9.224;2023-06-19T11:08:22;6.63;;;6.05;;
50128;SDS011;36026;45.478;9.224;2023-06-19T11:11:33;8.35;;;6.10;;
50128;SDS011;36026;45.478;9.224;2023-06-19T11:14:36;6.87;;;6.17;;
50128;SDS011;36026;45.478;9.224;2023-06-19T11:17:41;6.43;;;5.82;;
50128;SDS011;36026;45.478;9.224;2023-06-19T11:20:43;6.10;;;5.43;;
50128;SDS011;36026;45.478;9.224;2023-06-19T11:23:47;6.18;;;5.13;;
50128;SDS011;36026;45.478;9.224;2023-06-19T11:26:49;7.72;;;5.53;;
50128;SDS011;36026;45.478;9.224;2023-06-19T11:29:54;6.43;;;5.65;;
50128;SDS011;36026;45.478;9.224;2023-06-19T11:33:00;6.15;;;5.65;;
50128;SDS011;36026;45.478;9.224;2023-06-19T11:36:02;7.55;;;6.60;;
50128;SDS011;36026;45.478;9.224;2023-06-19T11:42:06;7.10;;;6.37;;
50128;SDS011;36026;45.478;9.224;2023-06-19T11:45:08;9.57;;;7.63;;
50128;SDS011;36026;45.478;9.224;2023-06-19T11:48:11;7.20;;;6.25;;
50128;SDS011;36026;45.478;9.224;2023-06-19T11:51:14;7.60;;;6.88;;
50128;SDS011;36026;45.478;9.224;2023-06-19T11:54:15;7.67;;;6.93;;
50128;SDS011;36026;45.478;9.224;2023-06-19T12:00:19;11.20;;;7.15;;
50128;SDS011;36026;45.478;9.224;2023-06-19T12:03:22;7.78;;;6.97;;
50128;SDS011;36026;45.478;9.224;2023-06-19T12:06:24;8.20;;;6.93;;
50128;SDS011;36026;45.478;9.224;2023-06-19T12:09:26;8.40;;;6.70;;
50128;SDS011;36026;45.478;9.224;2023-06-19T12:15:31;9.70;;;7.22;;
50128;SDS011;36026;45.478;9.224;2023-06-19T12:18:34;9.63;;;6.55;;
50128;SDS011;36026;45.478;9.224;2023-06-19T12:21:35;8.88;;;6.68;;
50128;SDS011;36026;45.478;9.224;2023-06-19T12:24:37;8.10;;;7.22;;
50128;SDS011;36026;45.478;9.224;2023-06-19T12:27:39;10.15;;;6.93;;
50128;SDS011;36026;45.478;9.224;2023-06-19T12:30:41;8.40;;;6.65;;
50128;SDS011;36026;45.478;9.224;2023-06-19T12:33:44;6.65;;;6.05;;
50128;SDS011;36026;45.478;9.224;2023-06-19T12:36:48;7.43;;;6.72;;
50128;SDS011;36026;45.478;9.224;2023-06-19T12:42:51;8.60;;;6.30;;
50128;SDS011;36026;45.478;9.224;2023-06-19T12:45:53;7.03;;;6.43;;
50128;SDS011;36026;45.478;9.224;2023-06-19T12:48:56;6.70;;;6.00;;
50128;SDS011;36026;45.478;9.224;2023-06-19T12:51:58;6.60;;;5.97;;
50128;SDS011;36026;45.478;9.224;2023-06-19T12:55:00;7.40;;;6.70;;
50128;SDS011;36026;45.478;9.224;2023-06-19T12:58:02;7.00;;;6.25;;
50128;SDS011;36026;45.478;9.224;2023-06-19T13:01:03;8.60;;;6.40;;
50128;SDS011;36026;45.478;9.224;2023-06-19T13:04:07;7.93;;;6.50;;
50128;SDS011;36026;45.478;9.224;2023-06-19T13:07:08;6.90;;;6.20;;
50128;SDS011;36026;45.478;9.224;2023-06-19T13:10:10;6.40;;;5.55;;
50128;SDS011;36026;45.478;9.224;2023-06-19T13:19:17;8.45;;;5.78;;
50128;SDS011;36026;45.478;9.224;2023-06-19T13:22:19;5.78;;;5.28;;
50128;SDS011;36026;45.478;9.224;2023-06-19T13:25:20;5.95;;;5.35;;
50128;SDS011;36026;45.478;9.224;2023-06-19T13:28:22;5.00;;;4.10;;
50128;SDS011;36026;45.478;9.224;2023-06-19T13:31:23;5.00;;;4.50;;
50128;SDS011;36026;45.478;9.224;2023-06-19T13:34:27;5.38;;;4.88;;
50128;SDS011;36026;45.478;9.224;2023-06-19T13:37:28;7.28;;;5.03;;
50128;SDS011;36026;45.478;9.224;2023-06-19T13:40:30;5.75;;;5.25;;
50128;SDS011;36026;45.478;9.224;2023-06-19T13:43:32;5.57;;;5.07;;
50128;SDS011;36026;45.478;9.224;2023-06-19T13:46:33;7.63;;;5.13;;
50128;SDS011;36026;45.478;9.224;2023-06-19T13:49:36;5.38;;;4.85;;
50128;SDS011;36026;45.478;9.224;2023-06-19T13:52:38;7.53;;;5.10;;
50128;SDS011;36026;45.478;9.224;2023-06-19T13:55:39;5.93;;;5.40;;
50128;SDS011;36026;45.478;9.224;2023-06-19T13:58:41;7.45;;;5.13;;
50128;SDS011;36026;45.478;9.224;2023-06-19T14:04:46;6.72;;;5.13;;
50128;SDS011;36026;45.478;9.224;2023-06-19T14:07:47;6.13;;;4.90;;
50128;SDS011;36026;45.478;9.224;2023-06-19T14:10:49;9.23;;;4.97;;
50128;SDS011;36026;45.478;9.224;2023-06-19T14:13:51;5.35;;;4.80;;
50128;SDS011;36026;45.478;9.224;2023-06-19T14:16:52;5.95;;;5.22;;
50128;SDS011;36026;45.478;9.224;2023-06-19T14:19:55;5.53;;;5.03;;
50128;SDS011;36026;45.478;9.224;2023-06-19T14:22:57;6.45;;;4.65;;
50128;SDS011;36026;45.478;9.224;2023-06-19T14:25:58;5.70;;;4.88;;
50128;SDS011;36026;45.478;9.224;2023-06-19T14:29:00;7.68;;;5.32;;
50128;SDS011;36026;45.478;9.224;2023-06-19T14:32:02;5.40;;;4.90;;
50128;SDS011;36026;45.478;9.224;2023-06-19T14:35:06;5.43;;;4.75;;
50128;SDS011;36026;45.478;9.224;2023-06-19T14:38:08;6.53;;;5.80;;
50128;SDS011;36026;45.478;9.224;2023-06-19T14:41:09;5.90;;;5.10;;
50128;SDS011;36026;45.478;9.224;2023-06-19T14:44:11;6.30;;;5.70;;
50128;SDS011;36026;45.478;9.224;2023-06-19T14:47:13;6.00;;;5.40;;
50128;SDS011;36026;45.478;9.224;2023-06-19T14:50:16;6.00;;;5.50;;
50128;SDS011;36026;45.478;9.224;2023-06-19T14:53:17;6.57;;;5.40;;
50128;SDS011;36026;45.478;9.224;2023-06-19T14:56:19;6.13;;;5.47;;
50128;SDS011;36026;45.478;9.224;2023-06-19T14:59:21;6.40;;;5.80;;
50128;SDS011;36026;45.478;9.224;2023-06-19T15:02:23;6.82;;;6.10;;
50128;SDS011;36026;45.478;9.224;2023-06-19T15:05:26;6.38;;;5.70;;
50128;SDS011;36026;45.478;9.224;2023-06-19T15:08:27;6.80;;;6.20;;
50128;SDS011;36026;45.478;9.224;2023-06-19T15:11:29;6.68;;;5.95;;
50128;SDS011;36026;45.478;9.224;2023-06-19T15:14:30;7.97;;;5.35;;
50128;SDS011;36026;45.478;9.224;2023-06-19T15:20:36;6.88;;;6.07;;
50128;SDS011;36026;45.478;9.224;2023-06-19T15:23:38;8.15;;;5.82;;
50128;SDS011;36026;45.478;9.224;2023-06-19T15:26:40;9.23;;;5.50;;
50128;SDS011;36026;45.478;9.224;2023-06-19T15:29:41;6.82;;;5.22;;
50128;SDS011;36026;45.478;9.224;2023-06-19T15:32:43;6.57;;;5.55;;
50128;SDS011;36026;45.478;9.224;2023-06-19T15:35:46;10.20;;;4.97;;
50128;SDS011;36026;45.478;9.224;2023-06-19T15:38:48;7.75;;;5.97;;
50128;SDS011;36026;45.478;9.224;2023-06-19T15:41:49;6.53;;;5.93;;
50128;SDS011;36026;45.478;9.224;2023-06-19T15:44:51;7.78;;;5.38;;
50128;SDS011;36026;45.478;9.224;2023-06-19T15:47:52;6.00;;;5.40;;
50128;SDS011;36026;45.478;9.224;2023-06-19T15:50:55;8.48;;;5.35;;
50128;SDS011;36026;45.478;9.224;2023-06-19T15:53:57;6.75;;;4.93;;
50128;SDS011;36026;45.478;9.224;2023-06-19T15:56:59;7.23;;;5.83;;
50128;SDS011;36026;45.478;9.224;2023-06-19T16:00:00;7.27;;;5.50;;
50128;SDS011;36026;45.478;9.224;2023-06-19T16:03:03;5.82;;;5.32;;
50128;SDS011;36026;45.478;9.224;2023-06-19T16:06:07;7.20;;;5.63;;
50128;SDS011;36026;45.478;9.224;2023-06-19T16:09:08;8.27;;;5.55;;
50128;SDS011;36026;45.478;9.224;2023-06-19T16:12:10;6.95;;;6.00;;
50128;SDS011;36026;45.478;9.224;2023-06-19T16:15:12;5.70;;;5.17;;
50128;SDS011;36026;45.478;9.224;2023-06-19T16:18:14;8.55;;;5.88;;
50128;SDS011;36026;45.478;9.224;2023-06-19T16:21:17;7.13;;;5.70;;
50128;SDS011;36026;45.478;9.224;2023-06-19T16:24:19;7.65;;;5.50;;
50128;SDS011;36026;45.478;9.224;2023-06-19T16:27:21;6.57;;;5.68;;
50128;SDS011;36026;45.478;9.224;2023-06-19T16:30:23;6.22;;;5.43;;
50128;SDS011;36026;45.478;9.224;2023-06-19T16:33:24;6.72;;;5.60;;
50128;SDS011;36026;45.478;9.224;2023-06-19T16:36:27;7.40;;;5.82;;
50128;SDS011;36026;45.478;9.224;2023-06-19T16:39:29;7.75;;;7.00;;
50128;SDS011;36026;45.478;9.224;2023-06-19T16:42:31;6.57;;;5.60;;
50128;SDS011;36026;45.478;9.224;2023-06-19T16:45:32;8.05;;;5.75;;
50128;SDS011;36026;45.478;9.224;2023-06-19T16:48:34;10.32;;;6.70;;
50128;SDS011;36026;45.478;9.224;2023-06-19T16:51:37;7.35;;;6.65;;
50128;SDS011;36026;45.478;9.224;2023-06-19T16:54:39;8.35;;;6.78;;
50128;SDS011;36026;45.478;9.224;2023-06-19T16:57:45;7.05;;;6.35;;
50128;SDS011;36026;45.478;9.224;2023-06-19T17:00:47;8.80;;;5.93;;
50128;SDS011;36026;45.478;9.224;2023-06-19T17:03:53;7.00;;;6.30;;
50128;SDS011;36026;45.478;9.224;2023-06-19T17:06:59;7.80;;;6.00;;
50128;SDS011;36026;45.478;9.224;2023-06-19T17:10:00;8.90;;;6.47;;
50128;SDS011;36026;45.478;9.224;2023-06-19T17:13:03;7.72;;;6.38;;
50128;SDS011;36026;45.478;9.224;2023-06-19T17:16:05;8.23;;;6.83;;
50128;SDS011;36026;45.478;9.224;2023-06-19T17:19:06;7.15;;;6.18;;
50128;SDS011;36026;45.478;9.224;2023-06-19T17:22:09;7.65;;;6.28;;
50128;SDS011;36026;45.478;9.224;2023-06-19T17:25:12;7.07;;;6.07;;
50128;SDS011;36026;45.478;9.224;2023-06-19T17:28:14;7.82;;;6.38;;
50128;SDS011;36026;45.478;9.224;2023-06-19T17:31:16;6.90;;;6.20;;
50128;SDS011;36026;45.478;9.224;2023-06-19T17:34:18;7.07;;;6.18;;
50128;SDS011;36026;45.478;9.224;2023-06-19T17:37:21;7.30;;;6.27;;
50128;SDS011;36026;45.478;9.224;2023-06-19T17:40:23;8.23;;;6.00;;
50128;SDS011;36026;45.478;9.224;2023-06-19T17:43:26;7.47;;;6.50;;
50128;SDS011;36026;45.478;9.224;2023-06-19T17:46:27;9.18;;;5.68;;
50128;SDS011;36026;45.478;9.224;2023-06-19T17:49:29;10.13;;;6.00;;
50128;SDS011;36026;45.478;9.224;2023-06-19T17:52:34;5.72;;;5.10;;
50128;SDS011;36026;45.478;9.224;2023-06-19T17:55:36;9.05;;;4.75;;
50128;SDS011;36026;45.478;9.224;2023-06-19T17:58:37;5.57;;;4.25;;
50128;SDS011;36026;45.478;9.224;2023-06-19T18:01:39;8.35;;;4.72;;
50128;SDS011;36026;45.478;9.224;2023-06-19T18:04:41;15.13;;;4.40;;
50128;SDS011;36026;45.478;9.224;2023-06-19T18:07:44;5.15;;;4.25;;
50128;SDS011;36026;45.478;9.224;2023-06-19T18:13:50;9.77;;;3.70;;
50128;SDS011;36026;45.478;9.224;2023-06-19T18:16:52;8.23;;;4.38;;
50128;SDS011;36026;45.478;9.224;2023-06-19T18:19:53;4.63;;;4.00;;
50128;SDS011;36026;45.478;9.224;2023-06-19T18:22:56;9.45;;;4.80;;
50128;SDS011;36026;45.478;9.224;2023-06-19T18:25:58;7.38;;;4.03;;
50128;SDS011;36026;45.478;9.224;2023-06-19T18:29:00;5.00;;;3.83;;
50128;SDS011;36026;45.478;9.224;2023-06-19T18:32:02;5.75;;;4.13;;
50128;SDS011;36026;45.478;9.224;2023-06-19T18:35:04;7.53;;;4.43;;
50128;SDS011;36026;45.478;9.224;2023-06-19T18:38:07;4.28;;;3.85;;
50128;SDS011;36026;45.478;9.224;2023-06-19T18:44:10;5.90;;;4.00;;
50128;SDS011;36026;45.478;9.224;2023-06-19T18:47:12;5.00;;;3.75;;
50128;SDS011;36026;45.478;9.224;2023-06-19T18:50:14;7.47;;;4.05;;
50128;SDS011;36026;45.478;9.224;2023-06-19T18:53:17;9.95;;;6.53;;
50128;SDS011;36026;45.478;9.224;2023-06-19T18:56:18;6.47;;;4.20;;
50128;SDS011;36026;45.478;9.224;2023-06-19T18:59:20;5.55;;;4.63;;